Unser Platzwetter:
(um das Bild zu aktualisieren oder bei unvollständig geladenem Bild den Reload-Button des Browsers drücken)

 

 
[Quelle: ADDS]
METAR
ETNN 251320Z 32007KT 9999 SCT040 18/08 Q1017 BLU+ =
ETNN 251300Z 2514/2523 29005KT 9999 NSW SCT030 PROB30 2514/2518 30010KT 6000 SHRA BKN020TCU BY ETGL
TAF
ETNN 251300Z 2514/2523 29005KT 9999 NSW SCT030 PROB30 2514/2518 30010KT 6000 SHRA BKN020TCU BY ETGL =
SR / SS: 03:31 / 19:28 UTC (Vettweiss-Soller 2019-05-25)
 

Hier gibt es ein Wetterdiagramm der letzten 7 Tage.

Hier geht es zu unserer Webcam.

Satelitenbild:

aktuelles Meteosat-Bild von www.wetterzentrale.de